createdAt,value
2023-01-30T00:02:05.960Z,51.67
2023-01-30T00:04:34.747Z,51.67
2023-01-30T00:07:02.977Z,51.70
2023-01-30T00:11:30.353Z,51.99
2023-01-30T00:14:00.397Z,51.59
2023-01-30T00:16:32.983Z,51.54
2023-01-30T00:19:04.334Z,51.54
2023-01-30T00:21:33.322Z,51.47
2023-01-30T00:24:02.234Z,51.62
2023-01-30T00:26:30.837Z,51.67
2023-01-30T00:28:59.380Z,51.69
2023-01-30T00:31:31.580Z,51.71
2023-01-30T00:33:59.932Z,51.65
2023-01-30T00:36:28.513Z,51.55
2023-01-30T00:38:58.316Z,51.67
2023-01-30T00:41:46.477Z,51.63
2023-01-30T00:44:33.773Z,51.56
2023-01-30T00:47:09.358Z,51.79
2023-01-30T00:49:38.033Z,51.81
2023-01-30T00:52:08.955Z,51.93
2023-01-30T00:54:37.442Z,52.05
2023-01-30T00:57:05.822Z,52.21
2023-01-30T00:59:34.098Z,52.29
2023-01-30T01:02:02.459Z,52.27
2023-01-30T01:04:30.626Z,52.31
2023-01-30T01:07:04.045Z,52.39
2023-01-30T01:09:32.629Z,52.54
2023-01-30T01:12:01.009Z,52.50
2023-01-30T01:14:29.662Z,52.62
2023-01-30T01:17:00.745Z,52.60
2023-01-30T01:19:29.319Z,52.55
2023-01-30T01:22:01.184Z,52.59
2023-01-30T01:24:29.971Z,52.59
2023-01-30T01:26:58.760Z,52.70
2023-01-30T01:29:27.245Z,52.90
2023-01-30T01:31:55.769Z,52.90
2023-01-30T01:34:24.507Z,52.96
2023-01-30T01:36:54.495Z,53.03
2023-01-30T01:39:43.489Z,53.11
2023-01-30T01:42:14.220Z,53.06
2023-01-30T01:45:04.209Z,53.02
2023-01-30T01:47:33.812Z,53.06
2023-01-30T01:50:03.317Z,53.14
2023-01-30T01:52:31.659Z,53.11
2023-01-30T01:55:03.763Z,53.31
2023-01-30T01:57:53.951Z,53.36
2023-01-30T02:00:22.641Z,53.34
2023-01-30T02:02:59.082Z,53.29
2023-01-30T02:05:31.245Z,53.40
2023-01-30T02:08:04.686Z,53.40
2023-01-30T02:27:51.088Z,54.08
2023-01-30T02:30:47.760Z,53.91
2023-01-30T02:33:22.757Z,53.86
2023-01-30T02:36:30.241Z,53.86
2023-01-30T02:39:23.347Z,53.87
2023-01-30T02:42:32.480Z,53.85
2023-01-30T02:45:26.637Z,53.88
2023-01-30T02:48:02.789Z,53.97
2023-01-30T02:50:35.167Z,54.00
2023-01-30T02:53:04.780Z,53.98
2023-01-30T02:55:34.280Z,53.87
2023-01-30T02:58:03.899Z,53.78
2023-01-30T03:00:44.965Z,53.77
2023-01-30T03:03:46.215Z,53.72
2023-01-30T03:06:17.356Z,53.72
2023-01-30T03:09:01.713Z,53.86
2023-01-30T03:11:39.206Z,53.75
2023-01-30T03:14:13.118Z,53.74
2023-01-30T03:16:41.495Z,53.74
2023-01-30T03:19:11.609Z,53.68
2023-01-30T03:21:42.389Z,53.65
2023-01-30T03:24:11.644Z,53.53
2023-01-30T03:26:45.996Z,53.53
2023-01-30T03:29:16.706Z,53.55
2023-01-30T03:31:45.412Z,53.64
2023-01-30T03:34:14.375Z,53.62
2023-01-30T03:36:43.170Z,53.57
2023-01-30T03:39:11.751Z,53.59
2023-01-30T03:41:40.638Z,53.61
2023-01-30T03:44:09.330Z,53.61
2023-01-30T03:46:37.498Z,53.45
2023-01-30T03:49:05.777Z,53.49
2023-01-30T03:51:34.152Z,53.47
2023-01-30T03:54:03.350Z,53.43
2023-01-30T03:56:32.694Z,53.45
2023-01-30T03:59:01.305Z,53.39
2023-01-30T04:01:36.831Z,53.48
2023-01-30T04:04:05.673Z,53.40
2023-01-30T04:06:35.760Z,53.49
2023-01-30T04:09:06.019Z,53.54
2023-01-30T04:11:42.525Z,53.54
2023-01-30T04:14:11.168Z,53.58
2023-01-30T04:16:48.080Z,53.63
2023-01-30T04:19:47.896Z,53.63
2023-01-30T04:22:16.249Z,53.53
2023-01-30T04:24:44.722Z,53.62
2023-01-30T04:27:13.525Z,53.81
2023-01-30T04:29:52.471Z,53.83
2023-01-30T04:32:26.756Z,53.73
2023-01-30T04:34:55.955Z,53.89
2023-01-30T04:37:25.152Z,53.89
2023-01-30T04:39:53.814Z,53.92
2023-01-30T04:42:22.218Z,54.17
2023-01-30T04:45:09.253Z,54.18
2023-01-30T04:47:38.499Z,54.06
2023-01-30T04:50:06.974Z,54.20
2023-01-30T04:52:35.496Z,54.16
2023-01-30T04:55:05.204Z,54.16
2023-01-30T04:57:34.257Z,54.16
2023-01-30T05:00:02.689Z,54.26
2023-01-30T05:02:35.669Z,54.27
2023-01-30T05:05:06.507Z,54.28
2023-01-30T05:07:34.781Z,54.46
2023-01-30T05:10:04.905Z,54.54
2023-01-30T05:12:35.244Z,54.64
2023-01-30T05:15:03.818Z,54.77
2023-01-30T05:17:34.279Z,54.80
2023-01-30T05:20:02.919Z,54.88
2023-01-30T05:22:31.810Z,55.14
2023-01-30T07:44:59.514Z,58.91
2023-01-30T07:49:42.216Z,58.84
2023-01-30T07:52:10.390Z,58.41
2023-01-30T07:54:38.419Z,58.30
2023-01-30T07:57:59.369Z,58.27
2023-01-30T08:00:31.059Z,57.84
2023-01-30T08:02:59.436Z,57.85
2023-01-30T08:05:27.821Z,57.88
2023-01-30T08:07:56.737Z,57.97
2023-01-30T08:10:25.716Z,58.02
2023-01-30T08:12:55.510Z,58.05
2023-01-30T08:15:24.195Z,58.10
2023-01-30T08:17:57.613Z,58.05
2023-01-30T08:20:28.492Z,58.23
2023-01-30T08:22:56.600Z,58.42
2023-01-30T08:25:27.348Z,58.57
2023-01-30T08:27:58.712Z,58.49
2023-01-30T08:30:27.468Z,58.55
2023-01-30T08:32:55.958Z,58.59
2023-01-30T08:35:24.343Z,58.52
2023-01-30T08:37:52.625Z,58.58
2023-01-30T08:40:21.283Z,58.70
2023-01-30T08:42:49.878Z,58.80
2023-01-30T08:45:18.446Z,58.62
2023-01-30T08:47:46.944Z,58.51
2023-01-30T08:50:15.888Z,58.14
2023-01-30T08:52:44.629Z,57.98
2023-01-30T08:55:13.282Z,57.60
2023-01-30T08:57:46.090Z,57.34
2023-01-30T09:00:15.781Z,57.47
2023-01-30T09:02:47.570Z,57.43
2023-01-30T09:05:18.292Z,57.31
2023-01-30T09:07:46.977Z,57.27
2023-01-30T09:10:15.325Z,57.35
2023-01-30T09:13:05.862Z,57.38
2023-01-30T09:15:35.989Z,57.46
2023-01-30T09:18:05.169Z,57.42
2023-01-30T09:20:34.167Z,57.18
2023-01-30T09:23:05.000Z,57.18
2023-01-30T09:25:34.711Z,57.11
2023-01-30T09:28:03.404Z,57.15
2023-01-30T09:30:31.802Z,57.27
2023-01-30T09:33:00.018Z,57.26
2023-01-30T09:35:28.329Z,57.38
2023-01-30T09:37:56.813Z,57.57
2023-01-30T09:40:28.402Z,57.70
2023-01-30T09:43:19.335Z,57.89
2023-01-30T09:46:00.080Z,57.97
2023-01-30T09:48:39.685Z,58.05
2023-01-30T09:51:26.188Z,58.31
2023-01-30T09:53:57.032Z,58.36
2023-01-30T12:07:19.575Z,56.65
2023-01-30T12:09:54.610Z,55.68
2023-01-30T12:12:43.055Z,55.69
2023-01-30T12:15:25.459Z,55.86
2023-01-30T12:17:56.699Z,55.91
2023-01-30T12:20:51.427Z,56.11
2023-01-30T12:23:32.164Z,56.29
2023-01-30T12:26:26.910Z,56.56
2023-01-30T12:29:00.575Z,56.86
2023-01-30T12:31:55.385Z,57.01
2023-01-30T12:34:27.141Z,57.21
2023-01-30T12:36:58.829Z,57.21
2023-01-30T12:39:33.812Z,57.44
2023-01-30T12:42:35.028Z,57.50
2023-01-30T12:45:22.801Z,57.71
2023-01-30T12:48:10.980Z,57.78
2023-01-30T12:51:00.612Z,57.89
2023-01-30T12:53:41.203Z,57.96
2023-01-30T12:56:28.659Z,58.15
2023-01-30T12:59:21.258Z,58.15
2023-01-30T13:02:08.475Z,58.12
2023-01-30T13:05:03.904Z,58.12
2023-01-30T13:08:14.971Z,58.22
2023-01-30T13:11:02.094Z,57.95
2023-01-30T13:13:35.997Z,57.76
2023-01-30T13:16:19.679Z,57.73
2023-01-30T13:18:56.514Z,57.77
2023-01-30T13:21:44.741Z,57.87
2023-01-30T13:24:19.087Z,58.10
2023-01-30T13:26:47.588Z,58.05
2023-01-30T13:29:36.030Z,58.14
2023-01-30T13:32:06.859Z,58.19
2023-01-30T13:34:44.833Z,58.11
2023-01-30T13:37:18.452Z,58.17
2023-01-30T13:40:01.023Z,58.29
2023-01-30T13:42:32.322Z,58.32
2023-01-30T13:45:00.838Z,58.39
2023-01-30T13:47:48.349Z,58.33
2023-01-30T13:50:17.691Z,58.47
2023-01-30T13:52:55.840Z,58.65
2023-01-30T13:55:50.636Z,58.60
2023-01-30T13:58:57.722Z,58.65
2023-01-30T14:01:28.602Z,58.65
2023-01-30T14:03:56.728Z,58.67
2023-01-30T14:06:33.920Z,58.47
2023-01-30T14:09:19.614Z,58.32
2023-01-30T14:11:50.135Z,58.16
2023-01-30T14:14:18.406Z,58.25
2023-01-30T14:16:58.716Z,58.13
2023-01-30T14:19:33.391Z,58.20
2023-01-30T14:22:26.566Z,58.30
2023-01-30T14:25:23.292Z,58.15
2023-01-30T14:27:56.022Z,58.30
2023-01-30T14:30:35.363Z,58.39
2023-01-30T14:33:24.787Z,58.54
2023-01-30T14:35:59.222Z,58.66
2023-01-30T14:38:37.733Z,58.72
2023-01-30T14:41:06.854Z,58.80
2023-01-30T14:43:41.919Z,58.83
2023-01-30T14:46:19.192Z,58.92
2023-01-30T14:48:50.849Z,58.96
2023-01-30T14:51:19.178Z,59.05
2023-01-30T14:54:17.048Z,59.02
2023-01-30T14:56:56.421Z,59.05
2023-01-30T14:59:43.302Z,58.97
2023-01-30T15:02:14.919Z,58.91
2023-01-30T15:04:43.586Z,58.76
2023-01-30T15:07:20.829Z,58.66
2023-01-30T15:09:56.268Z,58.59
2023-01-30T15:12:34.022Z,58.39
2023-01-30T15:15:43.727Z,58.23
2023-01-30T15:18:16.304Z,58.17
2023-01-30T15:21:03.516Z,58.19
2023-01-30T15:23:54.160Z,58.37
2023-01-30T15:26:44.772Z,58.37
2023-01-30T15:29:31.529Z,58.48
2023-01-30T15:32:01.640Z,58.48
2023-01-30T15:34:31.684Z,58.56
2023-01-30T15:37:00.153Z,58.71
2023-01-30T15:52:23.289Z,58.39
2023-01-30T15:54:53.340Z,57.01
2023-01-30T15:57:25.979Z,56.85
2023-01-30T15:59:54.475Z,56.95
2023-01-30T16:02:25.421Z,57.06
2023-01-30T16:05:25.343Z,57.17
2023-01-30T16:07:59.101Z,57.38
2023-01-30T16:10:29.347Z,57.48
2023-01-30T16:12:58.261Z,57.65
2023-01-30T16:15:36.223Z,57.77
2023-01-30T16:18:36.229Z,57.89
2023-01-30T16:21:09.839Z,58.14
2023-01-30T16:23:42.553Z,58.16
2023-01-30T16:26:22.101Z,58.27
2023-01-30T16:28:50.988Z,58.36
2023-01-30T16:31:19.371Z,58.46
2023-01-30T16:33:51.849Z,58.58
2023-01-30T16:36:19.872Z,58.57
2023-01-30T16:38:49.425Z,58.29
2023-01-30T16:41:39.510Z,58.22
2023-01-30T16:44:10.682Z,58.19
2023-01-30T16:46:42.004Z,58.19
2023-01-30T16:49:20.777Z,58.26
2023-01-30T16:51:49.412Z,58.29
2023-01-30T16:54:24.280Z,58.32
2023-01-30T16:56:54.595Z,58.41
2023-01-30T16:59:30.733Z,58.47
2023-01-30T17:01:59.356Z,58.57
2023-01-30T17:04:32.741Z,58.74
2023-01-30T17:07:04.170Z,58.83
2023-01-30T17:09:44.653Z,58.98
2023-01-30T17:12:25.812Z,58.97
2023-01-30T17:15:17.663Z,59.02
2023-01-30T17:17:47.439Z,59.07
2023-01-30T17:20:16.747Z,59.24
2023-01-30T17:22:46.359Z,59.30
2023-01-30T17:25:24.816Z,59.43
2023-01-30T17:27:53.351Z,59.58
2023-01-30T17:30:22.036Z,59.46
2023-01-30T17:32:50.940Z,59.38
2023-01-30T17:35:19.260Z,59.24
2023-01-30T17:37:59.597Z,59.24
2023-01-30T17:40:42.974Z,59.09
2023-01-30T17:43:13.431Z,59.25
2023-01-30T17:45:42.312Z,59.22
2023-01-30T17:48:12.340Z,59.35
2023-01-30T17:50:41.326Z,59.54
2023-01-30T17:53:09.766Z,59.55
2023-01-30T17:55:38.187Z,59.61
2023-01-30T17:58:06.461Z,59.64
2023-01-30T18:00:34.738Z,59.69
2023-01-30T18:03:03.213Z,59.74
2023-01-30T18:05:32.222Z,59.91
2023-01-30T18:08:01.456Z,59.86
2023-01-30T18:10:29.995Z,59.87
2023-01-30T18:12:58.774Z,59.68
2023-01-30T18:15:27.065Z,59.62
2023-01-30T18:17:56.666Z,59.51
2023-01-30T18:20:24.926Z,59.55
2023-01-30T18:22:53.437Z,59.38
2023-01-30T18:25:22.726Z,59.37
2023-01-30T18:27:51.321Z,59.50
2023-01-30T18:30:20.310Z,59.58
2023-01-30T18:32:53.799Z,59.48
2023-01-30T18:35:22.813Z,59.54
2023-01-30T18:37:52.021Z,59.52
2023-01-30T18:40:20.811Z,59.58
2023-01-30T18:42:49.681Z,59.68
2023-01-30T18:45:18.070Z,59.77
2023-01-30T18:47:52.647Z,59.84
2023-01-30T18:50:21.545Z,59.87
2023-01-30T18:52:50.787Z,60.12
2023-01-30T18:55:20.576Z,60.02
2023-01-30T18:57:49.141Z,59.92
2023-01-30T19:00:19.560Z,59.65
2023-01-30T19:02:53.219Z,59.58
2023-01-30T19:05:21.577Z,59.57
2023-01-30T19:07:49.960Z,59.48
2023-01-30T19:10:20.546Z,59.53
2023-01-30T19:13:08.117Z,59.54
2023-01-30T19:15:36.872Z,59.55
2023-01-30T19:18:05.290Z,59.74
2023-01-30T19:20:33.871Z,59.95
2023-01-30T19:23:02.296Z,59.91
2023-01-30T19:25:30.705Z,60.01
2023-01-30T19:28:18.976Z,60.07
2023-01-30T19:30:47.902Z,60.09
2023-01-30T19:33:16.966Z,60.18
2023-01-30T19:35:45.446Z,60.21
2023-01-30T19:38:13.787Z,60.26
2023-01-30T19:40:42.987Z,60.17
2023-01-30T19:43:14.779Z,59.88
2023-01-30T19:45:43.056Z,59.70
2023-01-30T19:48:11.295Z,59.68
2023-01-30T19:50:40.234Z,59.66
2023-01-30T19:53:08.508Z,59.83
2023-01-30T19:55:37.109Z,59.88
2023-01-30T19:58:05.780Z,59.97
2023-01-30T20:00:34.354Z,60.04
2023-01-30T20:03:02.750Z,59.99
2023-01-30T20:05:32.139Z,60.03
2023-01-30T20:08:00.413Z,60.18
2023-01-30T20:10:32.701Z,60.86
2023-01-30T20:15:05.682Z,61.34
2023-01-30T20:17:34.226Z,60.79
2023-01-30T20:20:02.524Z,60.41
2023-01-30T20:22:33.248Z,60.18
2023-01-30T20:25:01.634Z,59.95
2023-01-30T20:27:30.022Z,59.85
2023-01-30T20:29:58.095Z,59.67
2023-01-30T20:32:26.503Z,59.60
2023-01-30T20:34:54.888Z,59.62
2023-01-30T20:37:23.274Z,59.59
2023-01-30T20:39:51.597Z,59.67
2023-01-30T20:42:20.128Z,59.70
2023-01-30T20:44:48.638Z,59.89
2023-01-30T20:47:16.783Z,60.14
2023-01-30T20:49:45.066Z,60.71
2023-01-30T20:52:13.533Z,61.27
2023-01-30T20:54:41.876Z,61.64
2023-01-30T20:57:10.316Z,61.96
2023-01-30T20:59:38.981Z,62.05
2023-01-30T21:02:07.359Z,62.13
2023-01-30T21:04:35.584Z,62.33
2023-01-30T21:07:04.009Z,62.39
2023-01-30T21:09:36.237Z,62.61
2023-01-30T21:12:05.624Z,62.91
2023-01-30T21:14:34.071Z,63.18
2023-01-30T21:17:02.443Z,63.48
2023-01-30T21:19:31.029Z,63.73
2023-01-30T21:22:04.520Z,64.00
2023-01-30T21:24:33.315Z,64.09
2023-01-30T21:27:01.492Z,64.18
2023-01-30T21:29:32.867Z,64.15
2023-01-30T21:32:01.769Z,64.12
2023-01-30T21:34:30.721Z,64.13
2023-01-30T21:37:17.699Z,64.12
2023-01-30T21:40:04.549Z,64.20
2023-01-30T21:42:51.866Z,64.41
2023-01-30T21:45:21.144Z,64.64
2023-01-30T21:47:51.086Z,64.74
2023-01-30T21:50:19.170Z,64.90
2023-01-30T21:52:47.418Z,65.28
2023-01-30T21:55:15.919Z,65.47
2023-01-30T21:57:44.264Z,65.39
2023-01-30T22:00:13.248Z,65.37
2023-01-30T22:02:41.667Z,65.33
2023-01-30T22:05:10.841Z,65.47
2023-01-30T22:07:40.266Z,65.60
2023-01-30T22:10:09.476Z,65.85
2023-01-30T22:20:04.419Z,66.93
2023-01-30T22:22:32.776Z,66.68
2023-01-30T22:25:02.465Z,67.28
2023-01-30T22:27:30.985Z,67.53
2023-01-30T22:30:00.292Z,67.75
2023-01-30T22:32:29.703Z,67.69
2023-01-30T22:34:58.248Z,67.69
2023-01-30T22:37:26.574Z,67.48
2023-01-30T22:39:55.541Z,67.64
2023-01-30T22:42:24.021Z,67.71
2023-01-30T22:44:52.297Z,67.68
2023-01-30T22:47:20.746Z,67.58
2023-01-30T22:49:50.338Z,67.44
2023-01-30T22:52:21.119Z,67.16
2023-01-30T22:54:49.669Z,67.25
2023-01-30T22:57:18.281Z,67.23
2023-01-30T22:59:46.770Z,67.29
2023-01-30T23:02:14.843Z,67.38
2023-01-30T23:04:43.021Z,67.45
2023-01-30T23:07:14.465Z,67.63
2023-01-30T23:09:43.467Z,67.69
2023-01-30T23:12:30.684Z,67.67
2023-01-30T23:14:59.352Z,67.77
2023-01-30T23:17:48.018Z,67.92
2023-01-30T23:20:16.740Z,67.85
2023-01-30T23:22:45.193Z,68.02
2023-01-30T23:25:13.670Z,68.06
2023-01-30T23:27:41.987Z,68.20
2023-01-30T23:30:11.039Z,68.22
2023-01-30T23:32:39.921Z,68.35
2023-01-30T23:35:08.523Z,68.50
2023-01-30T23:37:56.246Z,68.44
2023-01-30T23:40:24.444Z,68.32
2023-01-30T23:42:53.415Z,68.21
2023-01-30T23:45:22.131Z,68.42
2023-01-30T23:47:51.447Z,68.47
2023-01-30T23:50:19.642Z,68.61
2023-01-30T23:52:47.950Z,68.76
2023-01-30T23:55:16.373Z,68.79
2023-01-30T23:57:44.810Z,68.82
